createdAt,value
2023-04-17T00:03:34.097Z,15.73
2023-04-17T00:08:35.630Z,15.93
2023-04-17T00:13:37.292Z,16.73
2023-04-17T00:18:38.768Z,16.05
2023-04-17T00:23:40.589Z,16.40
2023-04-17T00:28:42.068Z,17.05
2023-04-17T00:33:43.479Z,16.20
2023-04-17T00:38:44.980Z,16.45
2023-04-17T00:43:46.412Z,16.38
2023-04-17T00:48:48.685Z,16.58
2023-04-17T00:53:50.312Z,16.80
2023-04-17T00:58:51.894Z,16.15
2023-04-17T01:03:53.663Z,16.85
2023-04-17T01:08:55.716Z,17.30
2023-04-17T01:13:57.155Z,17.25
2023-04-17T01:18:58.625Z,16.77
2023-04-17T01:24:03.072Z,18.40
2023-04-17T01:29:04.536Z,17.55
2023-04-17T01:34:05.984Z,16.77
2023-04-17T01:39:07.527Z,15.57
2023-04-17T01:44:09.046Z,17.13
2023-04-17T01:49:11.658Z,16.88
2023-04-17T01:54:15.450Z,16.17
2023-04-17T01:59:17.094Z,18.63
2023-04-17T02:04:18.807Z,19.20
2023-04-17T02:09:20.361Z,19.77
2023-04-17T02:14:21.794Z,18.90
2023-04-17T02:19:23.602Z,19.52
2023-04-17T02:24:25.394Z,19.60
2023-04-17T02:29:26.860Z,18.58
2023-04-17T02:34:28.275Z,19.40
2023-04-17T02:39:31.201Z,19.23
2023-04-17T02:44:32.615Z,19.13
2023-04-17T02:49:34.052Z,19.25
2023-04-17T02:54:35.620Z,20.63
2023-04-17T02:59:37.078Z,20.40
2023-04-17T03:04:38.793Z,20.70
2023-04-17T03:09:40.211Z,22.55
2023-04-17T03:14:42.448Z,21.60
2023-04-17T03:19:43.863Z,20.90
2023-04-17T03:24:45.535Z,21.70
2023-04-17T03:29:46.954Z,21.58
2023-04-17T03:34:48.379Z,21.98
2023-04-17T03:39:49.810Z,21.60
2023-04-17T03:44:52.042Z,21.25
2023-04-17T03:49:53.469Z,23.45
2023-04-17T03:54:54.882Z,22.35
2023-04-17T03:59:56.294Z,23.73
2023-04-17T04:04:57.766Z,22.00
2023-04-17T04:09:59.199Z,23.83
2023-04-17T04:15:01.012Z,23.55
2023-04-17T04:20:02.474Z,23.40
2023-04-17T04:25:04.106Z,22.25
2023-04-17T04:30:06.606Z,23.55
2023-04-17T04:35:08.609Z,21.25
2023-04-17T04:40:10.955Z,22.50
2023-04-17T04:45:12.573Z,21.95
2023-04-17T04:50:13.997Z,22.70
2023-04-17T04:55:15.635Z,21.13
2023-04-17T05:00:18.113Z,21.08
2023-04-17T05:05:19.592Z,21.48
2023-04-17T05:10:21.682Z,22.27
2023-04-17T05:15:23.278Z,21.73
2023-04-17T05:20:28.400Z,21.63
2023-04-17T05:25:29.837Z,21.80
2023-04-17T05:30:31.294Z,22.33
2023-04-17T05:35:33.225Z,22.40
2023-04-17T05:40:34.868Z,20.13
2023-04-17T05:45:36.701Z,21.52
2023-04-17T05:50:38.241Z,21.60
2023-04-17T05:55:39.795Z,20.58
2023-04-17T06:00:42.239Z,21.15
2023-04-17T06:05:43.725Z,20.63
2023-04-17T06:10:46.025Z,17.60
2023-04-17T06:15:47.517Z,18.80
2023-04-17T06:20:48.976Z,17.85
2023-04-17T06:25:50.383Z,17.80
2023-04-17T06:30:51.934Z,18.90
2023-04-17T06:35:53.369Z,17.10
2023-04-17T06:40:54.821Z,17.25
2023-04-17T06:45:56.262Z,16.15
2023-04-17T06:50:58.048Z,17.05
2023-04-17T06:55:59.462Z,17.27
2023-04-17T07:01:00.942Z,16.73
2023-04-17T07:06:02.402Z,17.20
2023-04-17T07:11:03.932Z,15.82
2023-04-17T07:16:06.388Z,15.48
2023-04-17T07:21:08.042Z,14.45
2023-04-17T07:26:11.404Z,14.95
2023-04-17T07:31:12.865Z,11.32
2023-04-17T07:36:14.324Z,14.35
2023-04-17T07:41:15.832Z,13.93
2023-04-17T07:46:17.312Z,13.25
2023-04-17T07:51:18.800Z,13.45
2023-04-17T07:56:20.259Z,13.93
2023-04-17T08:01:21.705Z,13.18
2023-04-17T08:06:23.234Z,13.40
2023-04-17T08:11:24.716Z,13.35
2023-04-17T08:16:26.248Z,14.07
2023-04-17T08:21:27.807Z,12.63
2023-04-17T08:26:29.245Z,14.13
2023-04-17T08:31:31.398Z,10.57
2023-04-17T08:36:33.133Z,13.63
2023-04-17T08:41:42.950Z,14.52
2023-04-17T08:46:45.221Z,15.25
2023-04-17T08:51:47.219Z,13.55
2023-04-17T08:56:48.985Z,16.15
2023-04-17T09:02:01.925Z,17.42
2023-04-17T09:07:05.124Z,16.13
2023-04-17T09:12:13.017Z,13.48
2023-04-17T09:17:19.137Z,15.80
2023-04-17T09:22:22.443Z,13.88
2023-04-17T09:27:26.273Z,16.15
2023-04-17T09:32:28.463Z,19.35
2023-04-17T09:37:53.859Z,20.15
2023-04-17T09:42:56.578Z,17.60
2023-04-17T09:47:58.386Z,18.92
2023-04-17T09:53:00.579Z,18.40
2023-04-17T09:58:04.391Z,19.13
2023-04-17T10:03:07.545Z,21.23
2023-04-17T10:08:09.335Z,16.67
2023-04-17T10:13:12.740Z,20.85
2023-04-17T10:18:24.934Z,19.60
2023-04-17T10:23:31.974Z,20.15
2023-04-17T10:28:50.018Z,19.42
2023-04-17T10:33:54.149Z,19.63
2023-04-17T10:39:12.409Z,17.83
2023-04-17T10:44:13.984Z,17.70
2023-04-17T10:49:15.432Z,18.63
2023-04-17T10:54:17.079Z,17.27
2023-04-17T10:59:19.161Z,18.10
2023-04-17T11:04:34.084Z,18.05
2023-04-17T11:09:36.211Z,15.52
2023-04-17T11:14:40.857Z,15.43
2023-04-17T11:19:42.415Z,15.07
2023-04-17T11:24:44.334Z,15.32
2023-04-17T11:29:46.013Z,14.77
2023-04-17T11:34:47.494Z,15.27
2023-04-17T11:39:48.976Z,14.15
2023-04-17T11:44:50.501Z,14.20
2023-04-17T11:49:51.996Z,13.43
2023-04-17T11:54:58.100Z,12.88
2023-04-17T11:59:59.655Z,12.70
2023-04-17T12:05:14.938Z,12.50
2023-04-17T12:10:16.437Z,12.80
2023-04-17T12:15:17.906Z,12.13
2023-04-17T12:20:19.397Z,13.38
2023-04-17T12:25:20.911Z,11.25
2023-04-17T12:30:23.295Z,12.55
2023-04-17T12:35:24.752Z,11.70
2023-04-17T12:40:26.338Z,11.75
2023-04-17T12:45:28.196Z,11.70
2023-04-17T12:50:29.642Z,12.07
2023-04-17T12:55:32.249Z,12.85
2023-04-17T13:00:34.339Z,11.85
2023-04-17T13:05:36.023Z,10.90
2023-04-17T13:10:37.579Z,11.18
2023-04-17T13:15:39.358Z,11.32
2023-04-17T13:20:40.832Z,11.10
2023-04-17T13:25:42.414Z,11.85
2023-04-17T13:30:43.916Z,11.20
2023-04-17T13:35:45.525Z,10.98
2023-04-17T13:40:46.946Z,12.52
2023-04-17T13:45:49.715Z,10.50
2023-04-17T13:50:51.325Z,10.07
2023-04-17T13:55:52.792Z,11.68
2023-04-17T14:00:54.243Z,10.32
2023-04-17T14:05:56.625Z,8.60
2023-04-17T14:10:58.149Z,8.88
2023-04-17T14:15:59.674Z,7.40
2023-04-17T14:21:01.429Z,8.32
2023-04-17T14:26:03.353Z,8.57
2023-04-17T14:31:05.425Z,7.75
2023-04-17T14:36:07.163Z,8.70
2023-04-17T14:41:09.256Z,9.07
2023-04-17T14:46:11.036Z,11.25
2023-04-17T14:51:14.329Z,10.57
2023-04-17T14:56:16.091Z,10.65
2023-04-17T15:01:17.653Z,10.57
2023-04-17T15:06:19.983Z,10.63
2023-04-17T15:11:21.404Z,9.95
2023-04-17T15:16:22.888Z,9.45
2023-04-17T15:21:24.331Z,10.70
2023-04-17T15:26:27.261Z,9.50
2023-04-17T15:31:28.695Z,9.65
2023-04-17T15:36:31.634Z,8.98
2023-04-17T15:41:33.054Z,8.10
2023-04-17T15:46:34.754Z,7.82
2023-04-17T15:51:36.389Z,7.93
2023-04-17T15:56:38.772Z,8.82
2023-04-17T16:01:40.369Z,8.95
2023-04-17T16:06:41.836Z,9.40
2023-04-17T16:11:43.653Z,9.40
2023-04-17T16:16:45.054Z,10.27
2023-04-17T16:21:46.469Z,10.98
2023-04-17T16:26:57.195Z,10.45
2023-04-17T16:31:58.767Z,10.07
2023-04-17T16:37:00.256Z,10.75
2023-04-17T16:42:01.834Z,10.38
2023-04-17T16:52:08.048Z,11.10
2023-04-17T16:57:09.463Z,11.88
2023-04-17T17:02:10.965Z,11.10
2023-04-17T17:07:12.435Z,10.77
2023-04-17T17:12:13.875Z,11.07
2023-04-17T17:17:15.627Z,11.70
2023-04-17T17:22:17.060Z,11.80
2023-04-17T17:27:18.519Z,12.15
2023-04-17T17:32:20.048Z,12.85
2023-04-17T17:37:21.735Z,12.68
2023-04-17T17:42:23.330Z,11.98
2023-04-17T17:47:27.379Z,9.88
2023-04-17T17:52:28.942Z,10.50
2023-04-17T17:57:38.726Z,10.57
2023-04-17T18:02:49.855Z,11.85
2023-04-17T18:07:51.548Z,10.88
2023-04-17T18:12:53.085Z,10.82
2023-04-17T18:17:55.564Z,12.32
2023-04-17T18:22:57.610Z,13.55
2023-04-17T18:27:59.084Z,12.80
2023-04-17T18:33:00.730Z,12.27
2023-04-17T18:38:02.370Z,13.00
2023-04-17T18:43:05.712Z,12.20
2023-04-17T18:48:07.473Z,12.82
2023-04-17T18:53:08.925Z,12.77
2023-04-17T18:58:10.408Z,12.50
2023-04-17T19:03:11.879Z,11.57
2023-04-17T19:08:14.924Z,12.63
2023-04-17T19:13:16.396Z,12.13
2023-04-17T19:18:17.874Z,13.30
2023-04-17T19:23:19.302Z,12.13
2023-04-17T19:28:21.381Z,12.27
2023-04-17T19:33:22.992Z,12.70
2023-04-17T19:38:25.977Z,13.02
2023-04-17T19:43:27.402Z,11.60
2023-04-17T19:48:28.818Z,12.75
2023-04-17T19:53:40.881Z,12.77
2023-04-17T19:58:42.648Z,12.77
2023-04-17T20:03:45.342Z,14.32
2023-04-17T20:08:47.150Z,13.60
2023-04-17T20:13:48.588Z,13.70
2023-04-17T20:18:51.821Z,12.93
2023-04-17T20:23:55.032Z,13.15
2023-04-17T20:28:56.494Z,13.40
2023-04-17T20:33:57.902Z,12.30
2023-04-17T20:38:59.363Z,11.77
2023-04-17T20:44:01.812Z,12.13
2023-04-17T20:49:03.380Z,12.02
2023-04-17T20:54:04.845Z,13.15
2023-04-17T20:59:06.324Z,12.23
2023-04-17T21:04:09.817Z,13.90
2023-04-17T21:09:14.165Z,13.85
2023-04-17T21:14:16.022Z,14.93
2023-04-17T21:19:17.468Z,14.00
2023-04-17T21:24:19.899Z,14.00
2023-04-17T21:29:21.328Z,14.48
2023-04-17T21:34:25.863Z,16.02
2023-04-17T21:39:27.403Z,15.38
2023-04-17T21:44:28.823Z,14.60
2023-04-17T21:49:30.232Z,15.25
2023-04-17T21:54:32.961Z,14.18
2023-04-17T21:59:35.049Z,13.95
2023-04-17T22:04:36.610Z,13.77
2023-04-17T22:09:38.151Z,14.38
2023-04-17T22:14:39.835Z,14.43
2023-04-17T22:19:41.879Z,14.55
2023-04-17T22:25:39.641Z,13.73
2023-04-17T22:31:37.694Z,13.07
2023-04-17T22:37:35.273Z,11.77
2023-04-17T22:43:33.205Z,13.45
2023-04-17T22:49:30.962Z,14.00
2023-04-17T22:55:28.786Z,13.07
2023-04-17T23:01:26.571Z,13.25
2023-04-17T23:07:24.361Z,14.10
2023-04-17T23:12:25.782Z,14.00
2023-04-17T23:17:27.289Z,14.43
2023-04-17T23:22:28.748Z,13.75
2023-04-17T23:27:31.547Z,15.25
2023-04-17T23:32:33.305Z,13.57
2023-04-17T23:37:34.751Z,15.02
2023-04-17T23:42:36.168Z,14.73
2023-04-17T23:47:37.724Z,15.13
2023-04-17T23:52:39.206Z,13.65
2023-04-17T23:57:40.658Z,15.70
